sensor_id;sensor_type;location;lat;lon;timestamp;temperature;humidity
83553;DHT22;73510;50.866;5.420;2024-01-30T00:01:52;9.10;68.30
83553;DHT22;73510;50.866;5.420;2024-01-30T00:04:18;9.00;68.40
83553;DHT22;73510;50.866;5.420;2024-01-30T00:06:45;9.00;68.40
83553;DHT22;73510;50.866;5.420;2024-01-30T00:09:11;8.90;68.70
83553;DHT22;73510;50.866;5.420;2024-01-30T00:11:37;9.00;68.80
83553;DHT22;73510;50.866;5.420;2024-01-30T00:14:04;8.90;68.60
83553;DHT22;73510;50.866;5.420;2024-01-30T00:16:30;8.90;68.70
83553;DHT22;73510;50.866;5.420;2024-01-30T00:18:56;8.90;68.80
83553;DHT22;73510;50.866;5.420;2024-01-30T00:21:22;8.90;68.90
83553;DHT22;73510;50.866;5.420;2024-01-30T00:23:49;8.90;68.80
83553;DHT22;73510;50.866;5.420;2024-01-30T00:26:15;8.80;68.90
83553;DHT22;73510;50.866;5.420;2024-01-30T00:28:41;8.90;69.00
83553;DHT22;73510;50.866;5.420;2024-01-30T00:31:07;8.80;68.90
83553;DHT22;73510;50.866;5.420;2024-01-30T00:33:34;8.80;69.00
83553;DHT22;73510;50.866;5.420;2024-01-30T00:36:00;8.90;69.00
83553;DHT22;73510;50.866;5.420;2024-01-30T00:38:25;8.90;68.90
83553;DHT22;73510;50.866;5.420;2024-01-30T00:40:51;8.80;69.00
83553;DHT22;73510;50.866;5.420;2024-01-30T00:43:17;8.90;69.00
83553;DHT22;73510;50.866;5.420;2024-01-30T00:45:43;8.90;69.00
83553;DHT22;73510;50.866;5.420;2024-01-30T00:48:09;8.90;69.00
83553;DHT22;73510;50.866;5.420;2024-01-30T00:50:35;9.00;68.70
83553;DHT22;73510;50.866;5.420;2024-01-30T00:53:01;9.00;68.70
83553;DHT22;73510;50.866;5.420;2024-01-30T00:55:26;9.00;68.70
83553;DHT22;73510;50.866;5.420;2024-01-30T00:57:52;8.90;68.70
83553;DHT22;73510;50.866;5.420;2024-01-30T01:00:18;8.90;68.70
83553;DHT22;73510;50.866;5.420;2024-01-30T01:02:46;8.80;68.90
83553;DHT22;73510;50.866;5.420;2024-01-30T01:05:12;8.80;69.00
83553;DHT22;73510;50.866;5.420;2024-01-30T01:07:38;8.80;69.10
83553;DHT22;73510;50.866;5.420;2024-01-30T01:10:06;8.80;69.00
83553;DHT22;73510;50.866;5.420;2024-01-30T01:12:31;8.80;69.00
83553;DHT22;73510;50.866;5.420;2024-01-30T01:14:57;8.70;69.00
83553;DHT22;73510;50.866;5.420;2024-01-30T01:17:23;8.70;69.20
83553;DHT22;73510;50.866;5.420;2024-01-30T01:19:49;8.60;69.20
83553;DHT22;73510;50.866;5.420;2024-01-30T01:22:15;8.60;69.40
83553;DHT22;73510;50.866;5.420;2024-01-30T01:24:42;8.70;69.40
83553;DHT22;73510;50.866;5.420;2024-01-30T01:27:08;8.70;69.40
83553;DHT22;73510;50.866;5.420;2024-01-30T01:29:34;8.80;69.40
83553;DHT22;73510;50.866;5.420;2024-01-30T01:31:59;8.80;69.30
83553;DHT22;73510;50.866;5.420;2024-01-30T01:34:25;8.80;69.20
83553;DHT22;73510;50.866;5.420;2024-01-30T01:36:51;8.80;69.30
83553;DHT22;73510;50.866;5.420;2024-01-30T01:39:17;8.90;69.40
83553;DHT22;73510;50.866;5.420;2024-01-30T01:41:43;8.90;69.30
83553;DHT22;73510;50.866;5.420;2024-01-30T01:44:10;8.90;69.30
83553;DHT22;73510;50.866;5.420;2024-01-30T01:46:35;9.00;69.10
83553;DHT22;73510;50.866;5.420;2024-01-30T01:49:03;9.00;69.00
83553;DHT22;73510;50.866;5.420;2024-01-30T01:51:31;9.10;68.80
83553;DHT22;73510;50.866;5.420;2024-01-30T01:54:00;9.10;68.80
83553;DHT22;73510;50.866;5.420;2024-01-30T01:56:27;9.00;68.90
83553;DHT22;73510;50.866;5.420;2024-01-30T01:58:54;9.00;68.80
83553;DHT22;73510;50.866;5.420;2024-01-30T02:01:21;9.00;68.80
83553;DHT22;73510;50.866;5.420;2024-01-30T02:03:48;9.00;69.00
83553;DHT22;73510;50.866;5.420;2024-01-30T02:06:15;9.10;69.00
83553;DHT22;73510;50.866;5.420;2024-01-30T02:08:41;9.10;68.80
83553;DHT22;73510;50.866;5.420;2024-01-30T02:11:07;9.20;68.80
83553;DHT22;73510;50.866;5.420;2024-01-30T02:13:33;9.10;68.80
83553;DHT22;73510;50.866;5.420;2024-01-30T02:15:59;9.10;68.90
83553;DHT22;73510;50.866;5.420;2024-01-30T02:18:26;9.00;68.80
83553;DHT22;73510;50.866;5.420;2024-01-30T02:20:54;9.00;68.90
83553;DHT22;73510;50.866;5.420;2024-01-30T02:23:24;9.00;69.20
83553;DHT22;73510;50.866;5.420;2024-01-30T02:25:53;9.00;69.50
83553;DHT22;73510;50.866;5.420;2024-01-30T02:28:19;9.10;69.30
83553;DHT22;73510;50.866;5.420;2024-01-30T02:30:46;9.20;69.30
83553;DHT22;73510;50.866;5.420;2024-01-30T02:33:12;9.20;69.40
83553;DHT22;73510;50.866;5.420;2024-01-30T02:35:38;9.30;69.20
83553;DHT22;73510;50.866;5.420;2024-01-30T02:38:04;9.30;69.10
83553;DHT22;73510;50.866;5.420;2024-01-30T02:40:31;9.30;69.20
83553;DHT22;73510;50.866;5.420;2024-01-30T02:42:58;9.40;69.10
83553;DHT22;73510;50.866;5.420;2024-01-30T02:45:24;9.40;68.90
83553;DHT22;73510;50.866;5.420;2024-01-30T02:47:50;9.40;68.90
83553;DHT22;73510;50.866;5.420;2024-01-30T02:50:15;9.30;69.00
83553;DHT22;73510;50.866;5.420;2024-01-30T02:52:42;9.30;69.00
83553;DHT22;73510;50.866;5.420;2024-01-30T02:55:09;9.20;69.10
83553;DHT22;73510;50.866;5.420;2024-01-30T02:57:35;9.30;69.40
83553;DHT22;73510;50.866;5.420;2024-01-30T03:00:01;9.40;69.30
83553;DHT22;73510;50.866;5.420;2024-01-30T03:02:26;9.40;69.10
83553;DHT22;73510;50.866;5.420;2024-01-30T03:04:53;9.40;69.00
83553;DHT22;73510;50.866;5.420;2024-01-30T03:07:18;9.40;69.10
83553;DHT22;73510;50.866;5.420;2024-01-30T03:09:44;9.40;69.40
83553;DHT22;73510;50.866;5.420;2024-01-30T03:12:10;9.40;69.50
83553;DHT22;73510;50.866;5.420;2024-01-30T03:14:36;9.50;69.50
83553;DHT22;73510;50.866;5.420;2024-01-30T03:17:02;9.60;69.30
83553;DHT22;73510;50.866;5.420;2024-01-30T03:19:28;9.60;69.30
83553;DHT22;73510;50.866;5.420;2024-01-30T03:21:54;9.60;69.30
83553;DHT22;73510;50.866;5.420;2024-01-30T03:24:20;9.60;69.30
83553;DHT22;73510;50.866;5.420;2024-01-30T03:26:46;9.70;69.20
83553;DHT22;73510;50.866;5.420;2024-01-30T03:29:11;9.70;69.00
83553;DHT22;73510;50.866;5.420;2024-01-30T03:31:38;9.70;69.00
83553;DHT22;73510;50.866;5.420;2024-01-30T03:34:04;9.70;69.10
83553;DHT22;73510;50.866;5.420;2024-01-30T03:36:30;9.70;69.20
83553;DHT22;73510;50.866;5.420;2024-01-30T03:38:58;9.60;69.20
83553;DHT22;73510;50.866;5.420;2024-01-30T03:41:24;9.60;69.40
83553;DHT22;73510;50.866;5.420;2024-01-30T03:43:50;9.70;69.40
83553;DHT22;73510;50.866;5.420;2024-01-30T03:46:16;9.70;69.20
83553;DHT22;73510;50.866;5.420;2024-01-30T03:48:42;9.70;69.20
83553;DHT22;73510;50.866;5.420;2024-01-30T03:51:07;9.70;69.20
83553;DHT22;73510;50.866;5.420;2024-01-30T03:53:34;9.60;69.30
83553;DHT22;73510;50.866;5.420;2024-01-30T03:55:59;9.60;69.40
83553;DHT22;73510;50.866;5.420;2024-01-30T03:58:25;9.60;69.60
83553;DHT22;73510;50.866;5.420;2024-01-30T04:00:51;9.60;69.70
83553;DHT22;73510;50.866;5.420;2024-01-30T04:03:17;9.70;69.70
83553;DHT22;73510;50.866;5.420;2024-01-30T04:05:46;9.70;69.60
83553;DHT22;73510;50.866;5.420;2024-01-30T04:08:12;9.70;69.50
83553;DHT22;73510;50.866;5.420;2024-01-30T04:10:38;9.70;69.50
83553;DHT22;73510;50.866;5.420;2024-01-30T04:13:03;9.60;69.70
83553;DHT22;73510;50.866;5.420;2024-01-30T04:15:29;9.60;69.80
83553;DHT22;73510;50.866;5.420;2024-01-30T04:17:57;9.60;69.80
83553;DHT22;73510;50.866;5.420;2024-01-30T04:20:24;9.50;69.80
83553;DHT22;73510;50.866;5.420;2024-01-30T04:22:50;9.50;70.00
83553;DHT22;73510;50.866;5.420;2024-01-30T04:25:17;9.50;69.80
83553;DHT22;73510;50.866;5.420;2024-01-30T04:27:42;9.50;69.80
83553;DHT22;73510;50.866;5.420;2024-01-30T04:30:08;9.50;70.00
83553;DHT22;73510;50.866;5.420;2024-01-30T04:32:35;9.50;69.90
83553;DHT22;73510;50.866;5.420;2024-01-30T04:35:01;9.60;69.70
83553;DHT22;73510;50.866;5.420;2024-01-30T04:37:26;9.50;69.50
83553;DHT22;73510;50.866;5.420;2024-01-30T04:39:52;9.50;69.80
83553;DHT22;73510;50.866;5.420;2024-01-30T04:42:18;9.50;69.90
83553;DHT22;73510;50.866;5.420;2024-01-30T04:44:43;9.50;69.90
83553;DHT22;73510;50.866;5.420;2024-01-30T04:47:09;9.50;69.90
83553;DHT22;73510;50.866;5.420;2024-01-30T04:49:38;9.50;69.90
83553;DHT22;73510;50.866;5.420;2024-01-30T04:52:06;9.60;69.80
83553;DHT22;73510;50.866;5.420;2024-01-30T04:54:33;9.60;69.60
83553;DHT22;73510;50.866;5.420;2024-01-30T04:56:58;9.60;69.60
83553;DHT22;73510;50.866;5.420;2024-01-30T04:59:24;9.60;69.90
83553;DHT22;73510;50.866;5.420;2024-01-30T05:01:50;9.60;69.80
83553;DHT22;73510;50.866;5.420;2024-01-30T05:04:16;9.70;69.80
83553;DHT22;73510;50.866;5.420;2024-01-30T05:06:42;9.70;69.70
83553;DHT22;73510;50.866;5.420;2024-01-30T05:09:08;9.70;69.80
83553;DHT22;73510;50.866;5.420;2024-01-30T05:11:41;9.70;69.70
83553;DHT22;73510;50.866;5.420;2024-01-30T05:14:07;9.70;69.70
83553;DHT22;73510;50.866;5.420;2024-01-30T05:16:33;9.70;69.60
83553;DHT22;73510;50.866;5.420;2024-01-30T05:18:58;9.70;69.60
83553;DHT22;73510;50.866;5.420;2024-01-30T05:21:25;9.80;69.60
83553;DHT22;73510;50.866;5.420;2024-01-30T05:23:51;9.80;69.60
83553;DHT22;73510;50.866;5.420;2024-01-30T05:26:17;9.80;69.70
83553;DHT22;73510;50.866;5.420;2024-01-30T05:28:42;9.80;69.70
83553;DHT22;73510;50.866;5.420;2024-01-30T05:31:10;9.80;69.70
83553;DHT22;73510;50.866;5.420;2024-01-30T05:33:36;9.80;69.90
83553;DHT22;73510;50.866;5.420;2024-01-30T05:36:02;9.80;69.70
83553;DHT22;73510;50.866;5.420;2024-01-30T05:38:30;9.90;69.70
83553;DHT22;73510;50.866;5.420;2024-01-30T05:40:55;10.00;69.70
83553;DHT22;73510;50.866;5.420;2024-01-30T05:43:23;10.00;69.70
83553;DHT22;73510;50.866;5.420;2024-01-30T05:45:49;10.00;69.70
83553;DHT22;73510;50.866;5.420;2024-01-30T05:48:15;10.00;69.60
83553;DHT22;73510;50.866;5.420;2024-01-30T05:50:41;10.00;69.50
83553;DHT22;73510;50.866;5.420;2024-01-30T05:53:07;10.00;69.60
83553;DHT22;73510;50.866;5.420;2024-01-30T05:55:32;10.00;69.60
83553;DHT22;73510;50.866;5.420;2024-01-30T05:57:58;10.10;69.60
83553;DHT22;73510;50.866;5.420;2024-01-30T06:00:24;10.10;69.60
83553;DHT22;73510;50.866;5.420;2024-01-30T06:02:50;10.10;69.50
83553;DHT22;73510;50.866;5.420;2024-01-30T06:05:16;10.10;69.60
83553;DHT22;73510;50.866;5.420;2024-01-30T06:07:41;10.10;69.70
83553;DHT22;73510;50.866;5.420;2024-01-30T06:10:07;10.10;69.60
83553;DHT22;73510;50.866;5.420;2024-01-30T06:12:34;10.10;69.60
83553;DHT22;73510;50.866;5.420;2024-01-30T06:15:00;10.20;69.50
83553;DHT22;73510;50.866;5.420;2024-01-30T06:17:26;10.30;69.40
83553;DHT22;73510;50.866;5.420;2024-01-30T06:19:52;10.30;69.30
83553;DHT22;73510;50.866;5.420;2024-01-30T06:22:17;10.30;69.30
83553;DHT22;73510;50.866;5.420;2024-01-30T06:24:43;10.30;69.30
83553;DHT22;73510;50.866;5.420;2024-01-30T06:27:10;10.30;69.40
83553;DHT22;73510;50.866;5.420;2024-01-30T06:29:36;10.30;69.40
83553;DHT22;73510;50.866;5.420;2024-01-30T06:32:02;10.30;69.40
83553;DHT22;73510;50.866;5.420;2024-01-30T06:34:27;10.30;69.30
83553;DHT22;73510;50.866;5.420;2024-01-30T06:36:53;10.30;69.40
83553;DHT22;73510;50.866;5.420;2024-01-30T06:39:19;10.40;69.30
83553;DHT22;73510;50.866;5.420;2024-01-30T06:41:47;10.40;69.40
83553;DHT22;73510;50.866;5.420;2024-01-30T06:44:12;10.30;69.40
83553;DHT22;73510;50.866;5.420;2024-01-30T06:46:38;10.30;69.30
83553;DHT22;73510;50.866;5.420;2024-01-30T06:49:04;10.40;69.30
83553;DHT22;73510;50.866;5.420;2024-01-30T06:51:30;10.40;69.30
83553;DHT22;73510;50.866;5.420;2024-01-30T06:53:56;10.30;69.30
83553;DHT22;73510;50.866;5.420;2024-01-30T06:56:22;10.40;69.30
83553;DHT22;73510;50.866;5.420;2024-01-30T06:58:48;10.30;69.20
83553;DHT22;73510;50.866;5.420;2024-01-30T07:01:14;10.30;69.40
83553;DHT22;73510;50.866;5.420;2024-01-30T07:03:41;10.30;69.40
83553;DHT22;73510;50.866;5.420;2024-01-30T07:06:07;10.30;69.50
83553;DHT22;73510;50.866;5.420;2024-01-30T07:08:33;10.30;69.50
83553;DHT22;73510;50.866;5.420;2024-01-30T07:10:59;10.30;69.60
83553;DHT22;73510;50.866;5.420;2024-01-30T07:13:24;10.20;69.70
83553;DHT22;73510;50.866;5.420;2024-01-30T07:15:50;10.30;69.70
83553;DHT22;73510;50.866;5.420;2024-01-30T07:18:16;10.30;69.60
83553;DHT22;73510;50.866;5.420;2024-01-30T07:20:42;10.20;69.80
83553;DHT22;73510;50.866;5.420;2024-01-30T07:23:15;10.20;69.80
83553;DHT22;73510;50.866;5.420;2024-01-30T07:25:43;10.20;69.80
83553;DHT22;73510;50.866;5.420;2024-01-30T07:28:10;10.20;69.80
83553;DHT22;73510;50.866;5.420;2024-01-30T07:30:36;10.20;69.80
83553;DHT22;73510;50.866;5.420;2024-01-30T07:33:02;10.20;69.80
83553;DHT22;73510;50.866;5.420;2024-01-30T07:35:28;10.20;69.80
83553;DHT22;73510;50.866;5.420;2024-01-30T07:37:53;10.10;69.80
83553;DHT22;73510;50.866;5.420;2024-01-30T07:40:19;10.10;69.90
83553;DHT22;73510;50.866;5.420;2024-01-30T07:42:45;10.10;69.90
83553;DHT22;73510;50.866;5.420;2024-01-30T07:45:11;10.10;69.80
83553;DHT22;73510;50.866;5.420;2024-01-30T07:47:37;10.10;70.00
83553;DHT22;73510;50.866;5.420;2024-01-30T07:50:03;10.10;70.00
83553;DHT22;73510;50.866;5.420;2024-01-30T07:52:29;10.10;70.10
83553;DHT22;73510;50.866;5.420;2024-01-30T07:54:55;10.10;70.10
83553;DHT22;73510;50.866;5.420;2024-01-30T07:57:21;10.10;70.10
83553;DHT22;73510;50.866;5.420;2024-01-30T07:59:46;10.10;70.10
83553;DHT22;73510;50.866;5.420;2024-01-30T08:02:13;10.10;70.10
83553;DHT22;73510;50.866;5.420;2024-01-30T08:04:39;10.10;70.10
83553;DHT22;73510;50.866;5.420;2024-01-30T08:07:04;10.10;70.10
83553;DHT22;73510;50.866;5.420;2024-01-30T08:09:30;10.20;70.10
83553;DHT22;73510;50.866;5.420;2024-01-30T08:11:56;10.20;70.10
83553;DHT22;73510;50.866;5.420;2024-01-30T08:14:22;10.20;70.10
83553;DHT22;73510;50.866;5.420;2024-01-30T08:16:47;10.20;70.10
83553;DHT22;73510;50.866;5.420;2024-01-30T08:19:14;10.30;70.20
83553;DHT22;73510;50.866;5.420;2024-01-30T08:21:40;10.30;70.20
83553;DHT22;73510;50.866;5.420;2024-01-30T08:24:07;10.40;70.10
83553;DHT22;73510;50.866;5.420;2024-01-30T08:26:33;10.40;70.20
83553;DHT22;73510;50.866;5.420;2024-01-30T08:28:59;10.50;70.20
83553;DHT22;73510;50.866;5.420;2024-01-30T08:31:25;10.50;70.20
83553;DHT22;73510;50.866;5.420;2024-01-30T08:33:51;10.60;70.00
83553;DHT22;73510;50.866;5.420;2024-01-30T08:36:17;10.70;70.00
83553;DHT22;73510;50.866;5.420;2024-01-30T08:38:43;10.70;69.90
83553;DHT22;73510;50.866;5.420;2024-01-30T08:41:09;10.80;69.80
83553;DHT22;73510;50.866;5.420;2024-01-30T08:43:35;10.90;69.60
83553;DHT22;73510;50.866;5.420;2024-01-30T08:46:02;10.90;69.60
83553;DHT22;73510;50.866;5.420;2024-01-30T08:48:28;11.00;69.50
83553;DHT22;73510;50.866;5.420;2024-01-30T08:50:54;11.00;69.40
83553;DHT22;73510;50.866;5.420;2024-01-30T08:53:19;11.10;69.40
83553;DHT22;73510;50.866;5.420;2024-01-30T08:55:45;11.10;69.40
83553;DHT22;73510;50.866;5.420;2024-01-30T08:58:11;11.20;69.20
83553;DHT22;73510;50.866;5.420;2024-01-30T09:00:37;11.30;69.10
83553;DHT22;73510;50.866;5.420;2024-01-30T09:03:03;11.40;69.00
83553;DHT22;73510;50.866;5.420;2024-01-30T09:05:29;11.40;69.00
83553;DHT22;73510;50.866;5.420;2024-01-30T09:07:54;11.50;68.60
83553;DHT22;73510;50.866;5.420;2024-01-30T09:10:20;11.60;68.40
83553;DHT22;73510;50.866;5.420;2024-01-30T09:12:46;11.70;68.30
83553;DHT22;73510;50.866;5.420;2024-01-30T09:15:12;11.70;68.10
83553;DHT22;73510;50.866;5.420;2024-01-30T09:17:38;11.70;68.20
83553;DHT22;73510;50.866;5.420;2024-01-30T09:20:04;11.80;68.00
83553;DHT22;73510;50.866;5.420;2024-01-30T09:22:30;11.80;68.00
83553;DHT22;73510;50.866;5.420;2024-01-30T09:24:57;11.80;68.10
83553;DHT22;73510;50.866;5.420;2024-01-30T09:27:23;11.90;68.00
83553;DHT22;73510;50.866;5.420;2024-01-30T09:29:48;11.90;68.10
83553;DHT22;73510;50.866;5.420;2024-01-30T09:32:14;11.90;68.00
83553;DHT22;73510;50.866;5.420;2024-01-30T09:34:39;11.90;68.00
83553;DHT22;73510;50.866;5.420;2024-01-30T09:37:05;11.90;68.00
83553;DHT22;73510;50.866;5.420;2024-01-30T09:39:31;11.90;67.80
83553;DHT22;73510;50.866;5.420;2024-01-30T09:42:09;12.00;67.70
83553;DHT22;73510;50.866;5.420;2024-01-30T09:44:38;12.00;67.80
83553;DHT22;73510;50.866;5.420;2024-01-30T09:47:08;12.00;67.90
83553;DHT22;73510;50.866;5.420;2024-01-30T09:49:34;12.00;67.80
83553;DHT22;73510;50.866;5.420;2024-01-30T09:52:01;12.00;67.90
83553;DHT22;73510;50.866;5.420;2024-01-30T09:54:30;12.00;67.80
83553;DHT22;73510;50.866;5.420;2024-01-30T09:56:55;12.00;68.00
83553;DHT22;73510;50.866;5.420;2024-01-30T09:59:21;12.00;68.10
83553;DHT22;73510;50.866;5.420;2024-01-30T10:01:48;12.10;67.90
83553;DHT22;73510;50.866;5.420;2024-01-30T10:04:15;12.10;68.10
83553;DHT22;73510;50.866;5.420;2024-01-30T10:06:41;12.10;68.00
83553;DHT22;73510;50.866;5.420;2024-01-30T10:09:07;12.20;68.10
83553;DHT22;73510;50.866;5.420;2024-01-30T10:11:34;12.20;67.80
83553;DHT22;73510;50.866;5.420;2024-01-30T10:14:00;12.30;67.80
83553;DHT22;73510;50.866;5.420;2024-01-30T10:16:26;12.40;67.90
83553;DHT22;73510;50.866;5.420;2024-01-30T10:18:51;12.40;67.70
83553;DHT22;73510;50.866;5.420;2024-01-30T10:21:17;12.50;68.00
83553;DHT22;73510;50.866;5.420;2024-01-30T10:23:44;12.50;67.90
83553;DHT22;73510;50.866;5.420;2024-01-30T10:26:12;12.50;67.90
83553;DHT22;73510;50.866;5.420;2024-01-30T10:28:38;12.60;67.80
83553;DHT22;73510;50.866;5.420;2024-01-30T10:31:04;12.70;67.80
83553;DHT22;73510;50.866;5.420;2024-01-30T10:33:30;12.80;67.60
83553;DHT22;73510;50.866;5.420;2024-01-30T10:36:01;12.90;67.80
83553;DHT22;73510;50.866;5.420;2024-01-30T10:38:31;13.00;67.20
83553;DHT22;73510;50.866;5.420;2024-01-30T10:40:58;13.10;67.40
83553;DHT22;73510;50.866;5.420;2024-01-30T10:43:31;13.10;67.40
83553;DHT22;73510;50.866;5.420;2024-01-30T10:48:44;13.10;67.30
83553;DHT22;73510;50.866;5.420;2024-01-30T10:51:14;13.20;67.20
83553;DHT22;73510;50.866;5.420;2024-01-30T10:53:41;13.20;67.50
83553;DHT22;73510;50.866;5.420;2024-01-30T10:56:10;13.30;67.20
83553;DHT22;73510;50.866;5.420;2024-01-30T10:58:37;13.30;67.30
83553;DHT22;73510;50.866;5.420;2024-01-30T11:01:04;13.30;67.40
83553;DHT22;73510;50.866;5.420;2024-01-30T11:03:32;13.30;67.40
83553;DHT22;73510;50.866;5.420;2024-01-30T11:06:03;13.30;67.60
83553;DHT22;73510;50.866;5.420;2024-01-30T11:08:31;13.30;67.50
83553;DHT22;73510;50.866;5.420;2024-01-30T11:10:58;13.30;67.20
83553;DHT22;73510;50.866;5.420;2024-01-30T11:13:31;13.30;67.40
83553;DHT22;73510;50.866;5.420;2024-01-30T11:16:06;13.30;67.60
83553;DHT22;73510;50.866;5.420;2024-01-30T11:18:35;13.20;67.60
83553;DHT22;73510;50.866;5.420;2024-01-30T11:21:01;13.20;67.50
83553;DHT22;73510;50.866;5.420;2024-01-30T11:23:33;13.20;67.80
83553;DHT22;73510;50.866;5.420;2024-01-30T11:26:00;13.10;67.60
83553;DHT22;73510;50.866;5.420;2024-01-30T11:28:32;13.10;67.50
83553;DHT22;73510;50.866;5.420;2024-01-30T11:31:04;13.10;67.70
83553;DHT22;73510;50.866;5.420;2024-01-30T11:33:30;13.10;67.60
83553;DHT22;73510;50.866;5.420;2024-01-30T11:35:58;13.10;67.80
83553;DHT22;73510;50.866;5.420;2024-01-30T11:38:27;13.00;67.90
83553;DHT22;73510;50.866;5.420;2024-01-30T11:40:54;13.00;67.90
83553;DHT22;73510;50.866;5.420;2024-01-30T11:43:22;13.00;67.80
83553;DHT22;73510;50.866;5.420;2024-01-30T11:45:48;12.90;68.00
83553;DHT22;73510;50.866;5.420;2024-01-30T11:48:14;12.90;67.90
83553;DHT22;73510;50.866;5.420;2024-01-30T11:50:40;12.90;68.00
83553;DHT22;73510;50.866;5.420;2024-01-30T11:53:10;12.80;68.20
83553;DHT22;73510;50.866;5.420;2024-01-30T11:55:36;12.80;68.10
83553;DHT22;73510;50.866;5.420;2024-01-30T11:58:03;12.80;68.30
83553;DHT22;73510;50.866;5.420;2024-01-30T12:00:29;12.80;68.30
83553;DHT22;73510;50.866;5.420;2024-01-30T12:02:57;12.90;68.20
83553;DHT22;73510;50.866;5.420;2024-01-30T12:05:24;12.80;68.20
83553;DHT22;73510;50.866;5.420;2024-01-30T12:07:50;12.80;68.30
83553;DHT22;73510;50.866;5.420;2024-01-30T12:10:16;12.90;68.30
83553;DHT22;73510;50.866;5.420;2024-01-30T12:12:50;12.90;68.20
83553;DHT22;73510;50.866;5.420;2024-01-30T12:15:16;12.90;68.40
83553;DHT22;73510;50.866;5.420;2024-01-30T12:17:42;12.80;68.30
83553;DHT22;73510;50.866;5.420;2024-01-30T12:20:10;12.90;68.50
83553;DHT22;73510;50.866;5.420;2024-01-30T12:22:37;12.90;68.20
83553;DHT22;73510;50.866;5.420;2024-01-30T12:25:13;12.90;68.10
83553;DHT22;73510;50.866;5.420;2024-01-30T12:27:39;12.90;68.10
83553;DHT22;73510;50.866;5.420;2024-01-30T12:30:06;12.80;68.40
83553;DHT22;73510;50.866;5.420;2024-01-30T12:32:37;12.80;68.50
83553;DHT22;73510;50.866;5.420;2024-01-30T12:35:03;12.80;68.40
83553;DHT22;73510;50.866;5.420;2024-01-30T12:37:30;12.90;68.40
83553;DHT22;73510;50.866;5.420;2024-01-30T12:39:56;12.90;68.40
83553;DHT22;73510;50.866;5.420;2024-01-30T12:42:23;13.00;68.50
83553;DHT22;73510;50.866;5.420;2024-01-30T12:44:49;13.00;68.20
83553;DHT22;73510;50.866;5.420;2024-01-30T12:47:15;13.10;68.20
83553;DHT22;73510;50.866;5.420;2024-01-30T12:49:44;13.10;68.00
83553;DHT22;73510;50.866;5.420;2024-01-30T12:52:16;13.10;67.50
83553;DHT22;73510;50.866;5.420;2024-01-30T12:54:41;13.10;67.70
83553;DHT22;73510;50.866;5.420;2024-01-30T12:57:07;13.10;67.30
83553;DHT22;73510;50.866;5.420;2024-01-30T12:59:33;13.20;67.10
83553;DHT22;73510;50.866;5.420;2024-01-30T13:02:01;13.20;66.60
83553;DHT22;73510;50.866;5.420;2024-01-30T13:04:28;13.20;66.50
83553;DHT22;73510;50.866;5.420;2024-01-30T13:06:53;13.20;66.50
83553;DHT22;73510;50.866;5.420;2024-01-30T13:09:19;13.30;66.60
83553;DHT22;73510;50.866;5.420;2024-01-30T13:11:45;13.30;66.50
83553;DHT22;73510;50.866;5.420;2024-01-30T13:14:11;13.30;66.30
83553;DHT22;73510;50.866;5.420;2024-01-30T13:16:37;13.20;65.20
83553;DHT22;73510;50.866;5.420;2024-01-30T13:19:02;13.20;65.00
83553;DHT22;73510;50.866;5.420;2024-01-30T13:21:29;13.10;64.30
83553;DHT22;73510;50.866;5.420;2024-01-30T13:23:54;13.10;64.00
83553;DHT22;73510;50.866;5.420;2024-01-30T13:26:21;13.00;64.00
83553;DHT22;73510;50.866;5.420;2024-01-30T13:28:47;12.90;64.00
83553;DHT22;73510;50.866;5.420;2024-01-30T13:31:14;12.90;64.10
83553;DHT22;73510;50.866;5.420;2024-01-30T13:33:40;12.90;64.40
83553;DHT22;73510;50.866;5.420;2024-01-30T13:36:10;12.80;63.10
83553;DHT22;73510;50.866;5.420;2024-01-30T13:38:36;12.70;63.50
83553;DHT22;73510;50.866;5.420;2024-01-30T13:41:02;12.70;63.50
83553;DHT22;73510;50.866;5.420;2024-01-30T13:43:28;12.70;63.20
83553;DHT22;73510;50.866;5.420;2024-01-30T13:45:54;12.80;63.20
83553;DHT22;73510;50.866;5.420;2024-01-30T13:48:20;12.70;63.00
83553;DHT22;73510;50.866;5.420;2024-01-30T13:50:47;12.80;62.70
83553;DHT22;73510;50.866;5.420;2024-01-30T13:53:13;12.70;63.30
83553;DHT22;73510;50.866;5.420;2024-01-30T13:55:38;12.70;62.90
83553;DHT22;73510;50.866;5.420;2024-01-30T13:58:05;12.70;63.20
83553;DHT22;73510;50.866;5.420;2024-01-30T14:00:31;12.80;62.90
83553;DHT22;73510;50.866;5.420;2024-01-30T14:02:57;12.80;63.00
83553;DHT22;73510;50.866;5.420;2024-01-30T14:05:24;12.80;63.00
83553;DHT22;73510;50.866;5.420;2024-01-30T14:07:51;12.80;62.30
83553;DHT22;73510;50.866;5.420;2024-01-30T14:10:17;12.80;62.10
83553;DHT22;73510;50.866;5.420;2024-01-30T14:12:43;12.80;61.70
83553;DHT22;73510;50.866;5.420;2024-01-30T14:15:10;12.70;61.50
83553;DHT22;73510;50.866;5.420;2024-01-30T14:17:38;12.80;62.20
83553;DHT22;73510;50.866;5.420;2024-01-30T14:20:04;12.80;61.40
83553;DHT22;73510;50.866;5.420;2024-01-30T14:22:30;12.70;61.70
83553;DHT22;73510;50.866;5.420;2024-01-30T14:24:57;12.80;61.50
83553;DHT22;73510;50.866;5.420;2024-01-30T14:27:23;12.80;61.60
83553;DHT22;73510;50.866;5.420;2024-01-30T14:29:48;12.70;61.30
83553;DHT22;73510;50.866;5.420;2024-01-30T14:32:14;12.70;61.00
83553;DHT22;73510;50.866;5.420;2024-01-30T14:34:39;12.70;60.70
83553;DHT22;73510;50.866;5.420;2024-01-30T14:37:05;12.60;60.00
83553;DHT22;73510;50.866;5.420;2024-01-30T14:39:31;12.50;60.00
83553;DHT22;73510;50.866;5.420;2024-01-30T14:41:58;12.50;59.60
83553;DHT22;73510;50.866;5.420;2024-01-30T14:44:24;12.50;60.10
83553;DHT22;73510;50.866;5.420;2024-01-30T14:46:50;12.40;59.60
83553;DHT22;73510;50.866;5.420;2024-01-30T14:49:15;12.30;60.00
83553;DHT22;73510;50.866;5.420;2024-01-30T14:51:42;12.20;59.90
83553;DHT22;73510;50.866;5.420;2024-01-30T14:54:07;12.20;59.90
83553;DHT22;73510;50.866;5.420;2024-01-30T14:56:33;12.10;60.00
83553;DHT22;73510;50.866;5.420;2024-01-30T14:58:59;12.00;60.00
83553;DHT22;73510;50.866;5.420;2024-01-30T15:01:24;12.00;60.00
83553;DHT22;73510;50.866;5.420;2024-01-30T15:03:51;11.90;59.70
83553;DHT22;73510;50.866;5.420;2024-01-30T15:06:17;11.90;60.00
83553;DHT22;73510;50.866;5.420;2024-01-30T15:08:43;11.90;60.40
83553;DHT22;73510;50.866;5.420;2024-01-30T15:11:10;11.90;60.00
83553;DHT22;73510;50.866;5.420;2024-01-30T15:13:36;11.90;60.00
83553;DHT22;73510;50.866;5.420;2024-01-30T15:16:02;11.80;60.10
83553;DHT22;73510;50.866;5.420;2024-01-30T15:18:30;11.70;60.70
83553;DHT22;73510;50.866;5.420;2024-01-30T15:20:56;11.80;60.50
83553;DHT22;73510;50.866;5.420;2024-01-30T15:23:22;11.80;60.40
83553;DHT22;73510;50.866;5.420;2024-01-30T15:25:48;11.80;60.50
83553;DHT22;73510;50.866;5.420;2024-01-30T15:28:13;11.80;60.30
83553;DHT22;73510;50.866;5.420;2024-01-30T15:30:41;11.90;60.00
83553;DHT22;73510;50.866;5.420;2024-01-30T15:33:11;11.90;59.80
83553;DHT22;73510;50.866;5.420;2024-01-30T15:35:37;11.90;60.20